Aviation Digital Data Service (ADDS)

Output produced by TAFs form (0255 UTC 21 August 2017)
found at http://aviationweather.gov/adds/tafs/
 
KGUP 210106Z 2101/2124 14011KT P6SM VCSH OVC090 
     TEMPO 2101/2104 VRB15G25KT 6SM -TSRA BKN090CB 
     FM210600 06006KT P6SM BKN090 
     FM211900 33008KT P6SM VCSH SCT060 BKN090